Time;durP1;ratioP1;P1;durP2;ratioP2;P2;SDS_P1;SDS_P2;PMS_P1;PMS_P2;Temp;Humidity;BMP_temperature;BMP_pressure;BME280_temperature;BME280_humidity;BME280_pressure;Samples;Min_cycle;Max_cycle;Signal;HPM_P1;HPM_P2
2023/04/02 00:00:13;;;;;;;8.30;3.63;;;7.00;76.40;;;;;;5009225;28;20129;-77
2023/04/02 00:02:46;;;;;;;8.23;3.80;;;7.00;76.30;;;;;;5009062;28;20054;-78
2023/04/02 00:05:50;;;;;;;7.05;3.45;;;7.00;76.30;;;;;;4996101;28;20051;-78
2023/04/02 00:08:25;;;;;;;6.53;3.50;;;7.00;76.40;;;;;;5006369;28;20499;-77
2023/04/02 00:10:55;;;;;;;11.00;3.70;;;7.00;76.30;;;;;;4989277;28;20043;-78
2023/04/02 00:13:32;;;;;;;7.25;3.10;;;7.10;76.00;;;;;;5004195;28;20059;-77
2023/04/02 00:16:02;;;;;;;9.85;3.58;;;7.00;75.70;;;;;;4989360;28;20562;-77
2023/04/02 00:18:29;;;;;;;7.88;3.50;;;7.00;75.50;;;;;;4999447;28;20109;-77
2023/04/02 00:21:05;;;;;;;7.88;3.55;;;7.00;75.60;;;;;;5005729;28;20154;-77
2023/04/02 00:23:32;;;;;;;6.50;3.10;;;6.90;75.80;;;;;;4990633;28;20134;-77
2023/04/02 00:26:00;;;;;;;6.47;3.15;;;6.90;76.10;;;;;;4988181;28;20066;-78
2023/04/02 00:28:27;;;;;;;7.88;3.67;;;6.90;75.90;;;;;;5005500;28;20615;-77
2023/04/02 00:30:58;;;;;;;7.93;3.33;;;6.90;75.30;;;;;;4987383;28;20053;-77
2023/04/02 00:33:28;;;;;;;6.88;3.22;;;6.90;75.40;;;;;;4979476;28;20206;-78
2023/04/02 00:35:55;;;;;;;7.00;3.33;;;6.90;75.20;;;;;;4978198;28;20051;-78
2023/04/02 00:38:26;;;;;;;7.72;3.60;;;6.80;75.40;;;;;;4988639;28;20568;-77
2023/04/02 00:40:56;;;;;;;7.60;3.50;;;6.70;75.40;;;;;;4989071;28;20525;-77
2023/04/02 00:43:26;;;;;;;6.80;3.40;;;6.70;76.00;;;;;;4972625;28;20141;-77
2023/04/02 00:45:56;;;;;;;8.77;3.38;;;6.70;76.00;;;;;;4995835;28;20070;-78
2023/04/02 00:48:44;;;;;;;6.27;3.17;;;6.70;76.10;;;;;;5000356;28;20390;-77
2023/04/02 00:51:17;;;;;;;7.93;3.00;;;6.70;75.90;;;;;;5004937;28;20046;-78
2023/04/02 00:53:46;;;;;;;7.80;2.85;;;6.70;75.60;;;;;;4988896;28;20057;-77
2023/04/02 00:56:18;;;;;;;6.65;3.00;;;6.70;75.40;;;;;;4989135;28;20125;-77
2023/04/02 00:58:51;;;;;;;7.07;2.85;;;6.70;75.30;;;;;;4989285;28;20055;-78
2023/04/02 01:01:21;;;;;;;6.73;2.87;;;6.70;75.20;;;;;;4972711;28;20171;-77
2023/04/02 01:04:00;;;;;;;6.63;2.75;;;6.70;75.50;;;;;;4990493;28;20584;-77
2023/04/02 01:06:30;;;;;;;6.60;2.70;;;6.70;75.40;;;;;;4988754;28;20513;-77
2023/04/02 01:09:19;;;;;;;7.30;2.85;;;6.70;75.40;;;;;;5008453;28;20303;-78
2023/04/02 01:11:58;;;;;;;8.02;3.17;;;6.60;75.20;;;;;;5007982;28;20923;-77
2023/04/02 01:14:39;;;;;;;5.90;2.70;;;6.60;75.10;;;;;;5002540;28;20062;-78
2023/04/02 01:17:18;;;;;;;6.75;2.63;;;6.60;75.00;;;;;;4988359;28;20054;-78
2023/04/02 01:20:09;;;;;;;6.03;2.90;;;6.60;75.10;;;;;;5004747;28;20059;-77
2023/04/02 01:22:46;;;;;;;6.88;2.70;;;6.60;74.60;;;;;;5004683;28;20051;-77
2023/04/02 01:25:17;;;;;;;6.47;2.67;;;6.60;74.60;;;;;;4983736;28;20044;-77
2023/04/02 01:27:50;;;;;;;7.23;2.70;;;6.50;74.30;;;;;;4969968;28;20069;-77
2023/04/02 01:30:20;;;;;;;7.22;2.72;;;6.40;74.30;;;;;;4988034;28;20082;-77
2023/04/02 01:32:48;;;;;;;6.47;2.75;;;6.40;74.50;;;;;;4970063;28;20051;-77
2023/04/02 01:35:15;;;;;;;7.03;2.42;;;6.30;74.40;;;;;;4988266;28;20150;-77
2023/04/02 01:37:49;;;;;;;6.90;2.60;;;6.30;74.50;;;;;;4988286;28;20062;-77
2023/04/02 01:40:33;;;;;;;5.60;2.27;;;6.30;74.50;;;;;;4987558;28;20081;-77
2023/04/02 01:43:09;;;;;;;7.30;2.33;;;6.30;74.30;;;;;;4968829;28;20126;-77
2023/04/02 01:45:37;;;;;;;6.28;2.50;;;6.30;73.90;;;;;;4971495;28;20142;-77
2023/04/02 01:48:08;;;;;;;7.72;2.70;;;6.20;74.20;;;;;;4990003;28;20058;-77
2023/04/02 01:50:38;;;;;;;6.43;2.38;;;6.20;74.20;;;;;;4989780;28;20137;-77
2023/04/02 01:53:08;;;;;;;6.23;2.20;;;6.20;73.60;;;;;;4989739;28;20053;-77
2023/04/02 01:55:41;;;;;;;7.43;2.20;;;6.10;73.90;;;;;;5020270;28;20509;-77
2023/04/02 01:58:11;;;;;;;5.00;2.30;;;6.10;74.30;;;;;;4986312;28;20481;-78
2023/04/02 02:00:45;;;;;;;5.07;2.22;;;6.10;74.10;;;;;;4968992;28;20053;-78
2023/04/02 02:03:13;;;;;;;6.90;2.20;;;6.10;73.60;;;;;;5003545;28;20054;-78
2023/04/02 02:05:43;;;;;;;5.73;2.17;;;6.00;74.00;;;;;;5003109;28;20515;-78
2023/04/02 02:08:31;;;;;;;6.00;2.00;;;6.00;73.90;;;;;;4987109;28;20093;-78
2023/04/02 02:10:58;;;;;;;6.05;2.15;;;6.00;73.70;;;;;;4968668;28;20393;-79
2023/04/02 02:13:25;;;;;;;7.43;2.22;;;6.00;73.50;;;;;;4987569;28;20050;-78
2023/04/02 02:15:58;;;;;;;7.28;2.20;;;5.90;73.60;;;;;;5003538;28;20482;-78
2023/04/02 02:18:26;;;;;;;6.50;2.03;;;5.90;73.10;;;;;;5003336;28;20067;-79
2023/04/02 02:20:54;;;;;;;5.95;2.03;;;5.80;73.30;;;;;;4970988;28;20141;-78
2023/04/02 02:23:21;;;;;;;7.45;2.28;;;5.80;73.30;;;;;;4986651;28;20549;-78
2023/04/02 02:25:48;;;;;;;7.18;2.28;;;5.80;73.70;;;;;;4987200;28;20067;-78
2023/04/02 02:28:18;;;;;;;7.93;2.00;;;5.80;73.50;;;;;;4984949;28;20057;-78
2023/04/02 02:30:48;;;;;;;6.43;1.90;;;5.80;72.90;;;;;;4986755;28;20084;-78
2023/04/02 02:33:21;;;;;;;4.97;2.17;;;5.80;72.60;;;;;;4968554;28;20142;-78
2023/04/02 02:35:54;;;;;;;5.50;1.98;;;5.70;73.40;;;;;;4983042;28;20134;-78
2023/04/02 02:38:42;;;;;;;4.53;1.70;;;5.70;73.40;;;;;;4985785;28;20051;-78
2023/04/02 02:41:23;;;;;;;6.43;1.90;;;5.70;73.50;;;;;;4985232;28;20497;-78
2023/04/02 02:43:59;;;;;;;6.10;2.07;;;5.70;73.20;;;;;;4968572;28;20046;-78
2023/04/02 02:46:28;;;;;;;5.28;1.70;;;5.70;73.20;;;;;;4969083;28;20704;-78
2023/04/02 02:49:03;;;;;;;6.03;1.70;;;5.70;73.20;;;;;;4986376;28;20102;-78
2023/04/02 02:51:40;;;;;;;6.40;1.70;;;5.70;73.00;;;;;;4969608;28;20083;-78
2023/04/02 02:54:08;;;;;;;5.35;1.63;;;5.70;73.00;;;;;;4966699;28;20051;-78
2023/04/02 02:56:43;;;;;;;5.53;1.97;;;5.70;74.00;;;;;;4987422;28;20377;-78
2023/04/02 02:59:11;;;;;;;5.90;2.30;;;5.70;73.20;;;;;;4987517;28;20137;-78
2023/04/02 03:01:41;;;;;;;4.72;1.75;;;5.70;73.00;;;;;;4993820;28;20451;-78
2023/04/02 03:04:09;;;;;;;6.22;1.90;;;5.70;72.10;;;;;;4986961;28;20082;-78
2023/04/02 03:06:39;;;;;;;5.82;1.65;;;5.70;72.10;;;;;;4987111;28;20137;-78
2023/04/02 03:09:16;;;;;;;4.47;1.60;;;5.60;71.40;;;;;;4985460;28;20051;-78
2023/04/02 03:11:50;;;;;;;4.47;1.70;;;5.50;72.10;;;;;;4987057;28;20603;-78
2023/04/02 03:14:26;;;;;;;6.30;1.70;;;5.50;72.00;;;;;;4986838;28;20055;-78
2023/04/02 03:17:00;;;;;;;4.50;1.48;;;5.50;72.90;;;;;;4987204;28;20054;-78
2023/04/02 03:19:38;;;;;;;5.65;1.52;;;5.50;72.90;;;;;;4986640;28;20047;-78
2023/04/02 03:22:11;;;;;;;7.23;1.50;;;5.50;72.80;;;;;;4996380;28;20126;-78
2023/04/02 03:24:47;;;;;;;5.55;1.58;;;5.40;72.20;;;;;;4979072;28;20059;-79
2023/04/02 03:27:18;;;;;;;6.00;1.48;;;5.30;72.60;;;;;;4985763;28;20055;-78
2023/04/02 03:29:51;;;;;;;6.40;1.52;;;5.30;72.20;;;;;;4986828;28;20251;-78
2023/04/02 03:32:23;;;;;;;4.55;1.70;;;5.30;71.80;;;;;;4986791;28;20112;-78
2023/04/02 03:34:55;;;;;;;6.07;1.60;;;5.30;71.90;;;;;;4986840;28;20062;-78
2023/04/02 03:37:27;;;;;;;5.35;1.48;;;5.20;72.10;;;;;;4984959;28;20061;-78
2023/04/02 03:40:01;;;;;;;4.75;1.20;;;5.10;71.70;;;;;;5006034;28;20128;-79
2023/04/02 03:42:38;;;;;;;5.32;1.52;;;5.00;71.20;;;;;;4989890;28;20050;-78
2023/04/02 03:45:12;;;;;;;7.53;1.60;;;5.00;72.00;;;;;;4973180;28;20054;-79
2023/04/02 03:47:44;;;;;;;6.73;1.77;;;5.00;72.00;;;;;;5002872;28;20055;-78
2023/04/02 03:50:18;;;;;;;6.13;1.60;;;4.90;71.60;;;;;;4987915;28;20055;-78
2023/04/02 03:52:46;;;;;;;5.80;1.50;;;4.90;71.50;;;;;;5005616;28;20498;-78
2023/04/02 03:55:18;;;;;;;5.13;1.52;;;4.80;71.90;;;;;;4973684;28;20138;-78
2023/04/02 03:57:55;;;;;;;5.43;1.67;;;4.70;71.70;;;;;;5006452;28;20055;-78
2023/04/02 04:00:35;;;;;;;6.00;1.70;;;4.70;71.70;;;;;;5005952;28;20055;-78
2023/04/02 04:03:10;;;;;;;4.78;1.50;;;4.70;71.50;;;;;;4988395;28;20552;-77
2023/04/02 04:05:47;;;;;;;5.80;1.70;;;4.50;71.20;;;;;;4989679;28;20525;-78
2023/04/02 04:08:17;;;;;;;4.80;1.83;;;4.50;71.50;;;;;;4989466;28;20585;-78
2023/04/02 04:10:44;;;;;;;5.57;1.50;;;4.50;71.90;;;;;;4988942;28;20182;-78
2023/04/02 04:13:15;;;;;;;6.90;1.40;;;4.40;72.10;;;;;;4980216;28;20061;-78
2023/04/02 04:15:51;;;;;;;5.45;1.42;;;4.40;71.90;;;;;;4971935;28;20043;-78
2023/04/02 04:18:33;;;;;;;6.68;1.60;;;4.40;71.40;;;;;;4964148;28;20086;-78
2023/04/02 04:21:07;;;;;;;5.93;1.52;;;4.30;71.30;;;;;;4982319;28;20339;-78
2023/04/02 04:23:49;;;;;;;6.43;1.42;;;4.30;72.50;;;;;;4990518;28;20157;-78
2023/04/02 04:26:23;;;;;;;4.73;1.80;;;4.30;72.10;;;;;;5009232;28;20046;-78
2023/04/02 04:29:04;;;;;;;4.13;1.00;;;4.20;71.90;;;;;;4975075;28;20043;-78
2023/04/02 04:31:38;;;;;;;7.53;1.25;;;4.20;71.70;;;;;;4989179;28;20054;-78
2023/04/02 04:34:11;;;;;;;6.18;1.02;;;4.10;71.00;;;;;;4989453;28;20133;-77
2023/04/02 04:36:46;;;;;;;4.50;1.33;;;4.00;71.30;;;;;;4989308;28;20051;-78
2023/04/02 04:39:20;;;;;;;5.97;1.20;;;4.00;71.50;;;;;;4972391;28;20109;-78
2023/04/02 04:41:49;;;;;;;6.05;1.25;;;3.90;71.60;;;;;;4976737;28;20125;-77
2023/04/02 04:44:23;;;;;;;7.00;1.25;;;3.90;72.40;;;;;;5024691;28;20165;-77
2023/04/02 04:46:59;;;;;;;5.90;1.20;;;3.90;72.20;;;;;;4988266;28;20076;-78
2023/04/02 04:49:31;;;;;;;6.00;1.13;;;3.90;72.40;;;;;;4990134;28;20133;-77
2023/04/02 04:52:07;;;;;;;4.60;1.00;;;3.90;72.80;;;;;;4988962;28;20575;-78
2023/04/02 04:54:38;;;;;;;5.50;1.20;;;3.90;72.10;;;;;;5004272;28;20508;-78
2023/04/02 04:57:22;;;;;;;3.97;0.70;;;3.90;73.00;;;;;;4989020;28;20053;-78
2023/04/02 04:59:55;;;;;;;6.22;1.10;;;3.90;72.60;;;;;;4987929;28;20103;-78
2023/04/02 05:02:27;;;;;;;4.07;1.00;;;3.90;72.50;;;;;;4988587;28;20054;-78
2023/04/02 05:04:55;;;;;;;5.43;0.80;;;3.90;72.10;;;;;;5005482;28;20528;-78
2023/04/02 05:07:28;;;;;;;4.07;0.65;;;3.90;72.20;;;;;;4989282;28;20065;-78
2023/04/02 05:09:58;;;;;;;6.25;1.00;;;3.90;72.30;;;;;;5005331;28;20978;-78
2023/04/02 05:12:35;;;;;;;4.78;0.75;;;3.80;72.60;;;;;;4987755;28;20078;-78
2023/04/02 05:15:15;;;;;;;4.30;0.77;;;3.80;72.40;;;;;;4988628;28;20058;-77
2023/04/02 05:17:48;;;;;;;4.03;1.07;;;3.90;72.90;;;;;;4988893;28;20045;-78
2023/04/02 05:20:23;;;;;;;5.95;1.10;;;3.90;72.80;;;;;;4988542;28;20105;-78
2023/04/02 05:22:59;;;;;;;4.55;0.80;;;3.90;73.50;;;;;;4988622;28;20050;-78
2023/04/02 05:25:28;;;;;;;4.68;0.70;;;3.90;72.90;;;;;;4988429;28;20844;-78
2023/04/02 05:28:05;;;;;;;3.80;0.80;;;3.90;73.20;;;;;;4972662;28;20077;-78
2023/04/02 05:31:00;;;;;;;3.97;0.70;;;4.00;72.70;;;;;;4987350;28;20059;-78
2023/04/02 05:33:29;;;;;;;4.55;1.27;;;4.00;72.50;;;;;;4988456;28;20576;-78
2023/04/02 05:36:03;;;;;;;4.10;0.73;;;4.00;72.60;;;;;;5004570;28;20061;-78
2023/04/02 05:38:37;;;;;;;3.75;0.90;;;3.90;72.20;;;;;;5005046;28;20047;-78
2023/04/02 05:41:07;;;;;;;5.65;0.80;;;3.90;73.30;;;;;;4988128;28;20058;-78
2023/04/02 05:43:37;;;;;;;5.57;0.70;;;4.00;72.80;;;;;;4988816;28;20568;-78
2023/04/02 05:46:13;;;;;;;4.57;0.70;;;3.90;72.30;;;;;;4989003;28;20080;-77
2023/04/02 05:48:43;;;;;;;3.38;0.60;;;3.90;72.30;;;;;;4987342;28;20091;-78
2023/04/02 05:51:19;;;;;;;4.30;0.65;;;3.90;72.60;;;;;;4988561;28;20054;-78
2023/04/02 05:53:52;;;;;;;4.45;0.40;;;3.90;72.30;;;;;;4988336;28;20057;-78
2023/04/02 05:56:23;;;;;;;4.67;0.70;;;3.90;71.90;;;;;;4988773;28;20083;-78
2023/04/02 05:58:54;;;;;;;3.40;0.50;;;3.90;73.00;;;;;;4988015;28;20051;-77
2023/04/02 06:01:38;;;;;;;4.10;0.80;;;3.90;72.80;;;;;;4988150;28;20074;-78
2023/04/02 06:04:21;;;;;;;6.30;0.80;;;3.90;72.60;;;;;;5018045;28;20516;-77
2023/04/02 06:06:57;;;;;;;4.93;0.88;;;3.90;72.50;;;;;;4987773;28;20058;-77
2023/04/02 06:09:33;;;;;;;7.10;0.67;;;3.90;72.50;;;;;;4971404;28;20047;-77
2023/04/02 06:12:10;;;;;;;6.38;0.85;;;3.90;72.30;;;;;;4987452;28;20122;-78
2023/04/02 06:14:37;;;;;;;3.55;0.65;;;3.90;72.70;;;;;;4987716;28;20086;-77
2023/04/02 06:17:05;;;;;;;4.93;0.63;;;3.90;72.90;;;;;;5001731;28;20062;-77
2023/04/02 06:19:38;;;;;;;5.65;0.77;;;4.00;72.40;;;;;;4987686;28;20194;-77
2023/04/02 06:22:17;;;;;;;4.40;0.50;;;3.90;72.80;;;;;;4998878;28;20551;-77
2023/04/02 06:24:52;;;;;;;4.13;0.70;;;3.90;72.70;;;;;;5013288;28;20054;-77
2023/04/02 06:27:23;;;;;;;3.97;0.50;;;3.90;72.60;;;;;;5003457;28;20102;-77
2023/04/02 06:29:55;;;;;;;4.30;0.90;;;3.90;72.50;;;;;;4924318;28;20520;-78
2023/04/02 06:32:25;;;;;;;3.92;0.70;;;3.90;72.60;;;;;;4968660;28;20106;-77
2023/04/02 06:34:53;;;;;;;5.67;0.60;;;3.90;73.10;;;;;;4970135;28;20050;-77
2023/04/02 06:37:27;;;;;;;3.78;0.52;;;3.90;73.40;;;;;;4986082;28;20055;-78
2023/04/02 06:40:03;;;;;;;3.55;0.60;;;3.90;73.00;;;;;;4983837;28;20055;-77
2023/04/02 06:42:36;;;;;;;4.93;0.70;;;3.90;73.10;;;;;;5000592;28;20053;-78
2023/04/02 06:45:20;;;;;;;2.92;0.45;;;3.90;72.80;;;;;;4985739;28;20062;-77
2023/04/02 06:48:16;;;;;;;6.73;0.60;;;3.90;72.90;;;;;;4965349;28;20054;-77
2023/04/02 06:50:47;;;;;;;5.90;0.52;;;3.90;72.80;;;;;;4981224;28;20845;-77
2023/04/02 06:53:21;;;;;;;4.00;0.77;;;3.90;73.30;;;;;;4986396;28;20047;-77
2023/04/02 06:55:54;;;;;;;5.03;0.68;;;3.90;73.30;;;;;;4982576;28;20051;-77
2023/04/02 06:58:25;;;;;;;4.68;0.90;;;3.90;73.40;;;;;;4965664;28;20050;-78
2023/04/02 07:00:55;;;;;;;3.80;0.50;;;3.90;73.40;;;;;;4973441;28;20532;-78
2023/04/02 07:03:40;;;;;;;2.42;0.47;;;4.00;73.40;;;;;;4978742;28;20136;-77
2023/04/02 07:06:19;;;;;;;2.90;0.55;;;4.00;73.30;;;;;;4984427;28;20051;-77
2023/04/02 07:08:48;;;;;;;3.17;0.50;;;4.00;73.10;;;;;;4986387;28;20153;-77
2023/04/02 07:11:20;;;;;;;5.40;0.73;;;4.00;73.30;;;;;;4961149;28;20047;-77
2023/04/02 07:13:48;;;;;;;6.17;0.73;;;4.00;73.00;;;;;;4985942;28;20097;-77
2023/04/02 07:16:17;;;;;;;3.33;0.40;;;4.00;72.70;;;;;;4972498;28;20051;-77
2023/04/02 07:18:45;;;;;;;3.60;0.70;;;4.00;72.70;;;;;;4985775;28;20098;-77
2023/04/02 07:21:18;;;;;;;6.10;0.80;;;4.00;72.60;;;;;;4984769;28;20106;-77
2023/04/02 07:23:46;;;;;;;5.28;0.65;;;4.00;72.60;;;;;;4984000;28;20094;-77
2023/04/02 07:26:15;;;;;;;3.90;0.60;;;4.00;73.60;;;;;;5002366;28;20061;-76
2023/04/02 07:28:43;;;;;;;4.60;0.52;;;4.00;73.10;;;;;;4987955;28;20133;-77
2023/04/02 07:31:16;;;;;;;4.65;0.70;;;4.00;72.70;;;;;;4988988;28;20142;-78
2023/04/02 07:33:44;;;;;;;5.35;0.70;;;4.00;72.60;;;;;;4982338;28;20055;-78
2023/04/02 07:36:14;;;;;;;4.53;0.40;;;4.00;72.80;;;;;;4989600;28;20070;-77
2023/04/02 07:38:41;;;;;;;5.50;0.60;;;4.00;73.10;;;;;;4985040;28;20527;-77
2023/04/02 07:41:09;;;;;;;4.47;0.47;;;4.00;73.60;;;;;;4989482;28;20528;-77
2023/04/02 07:43:36;;;;;;;5.00;0.40;;;4.00;73.10;;;;;;5005853;28;20519;-79
2023/04/02 07:46:04;;;;;;;3.42;0.40;;;4.10;72.90;;;;;;4988135;28;20082;-79
2023/04/02 07:48:32;;;;;;;3.42;0.55;;;4.10;72.80;;;;;;4998500;28;20432;-79
2023/04/02 07:51:02;;;;;;;5.07;0.67;;;4.10;72.50;;;;;;4989786;28;20081;-77
2023/04/02 07:53:31;;;;;;;4.78;0.70;;;4.10;72.80;;;;;;5005247;28;20094;-78
2023/04/02 07:56:01;;;;;;;3.42;0.60;;;4.10;72.90;;;;;;4991937;28;20055;-78
2023/04/02 07:58:29;;;;;;;4.80;0.52;;;4.10;72.90;;;;;;4982540;28;20498;-78
2023/04/02 08:00:56;;;;;;;5.10;0.50;;;4.10;72.80;;;;;;4978497;28;20115;-77
2023/04/02 08:03:25;;;;;;;4.87;0.60;;;4.10;72.60;;;;;;4981640;28;20050;-78
2023/04/02 08:05:53;;;;;;;4.68;0.60;;;4.20;72.60;;;;;;4988358;28;20150;-79
2023/04/02 08:08:21;;;;;;;4.97;0.80;;;4.20;72.60;;;;;;4986731;28;20110;-79
2023/04/02 08:10:48;;;;;;;4.97;0.60;;;4.20;72.70;;;;;;4985167;28;20159;-80
2023/04/02 08:13:16;;;;;;;3.88;0.85;;;4.20;72.50;;;;;;4988269;28;20130;-78
2023/04/02 08:15:43;;;;;;;2.90;0.57;;;4.30;72.70;;;;;;4988465;28;20149;-79
2023/04/02 08:18:10;;;;;;;7.68;0.68;;;4.30;72.60;;;;;;4985994;28;20145;-79
2023/04/02 08:20:39;;;;;;;4.63;0.70;;;4.30;72.30;;;;;;4985201;28;20058;-79
2023/04/02 08:23:12;;;;;;;4.82;0.50;;;4.30;72.40;;;;;;4987503;28;20065;-77
2023/04/02 08:25:39;;;;;;;4.43;0.52;;;4.40;72.40;;;;;;4984490;28;20218;-77
2023/04/02 08:28:06;;;;;;;4.17;0.57;;;4.40;72.50;;;;;;4981880;28;20566;-78
2023/04/02 08:30:33;;;;;;;4.35;0.70;;;4.40;72.90;;;;;;4984983;28;20051;-79
2023/04/02 08:33:00;;;;;;;5.47;0.68;;;4.40;72.90;;;;;;4983773;28;20059;-78
2023/04/02 08:35:27;;;;;;;4.60;0.70;;;4.50;73.20;;;;;;4987727;28;20567;-78
2023/04/02 08:37:55;;;;;;;4.97;0.60;;;4.50;73.30;;;;;;4988030;28;20057;-79
2023/04/02 08:40:26;;;;;;;3.73;0.60;;;4.50;73.30;;;;;;4987047;28;20144;-79
2023/04/02 08:43:10;;;;;;;3.50;0.30;;;4.60;73.00;;;;;;4983919;28;20072;-79
2023/04/02 08:45:52;;;;;;;3.00;0.50;;;4.70;72.50;;;;;;4981749;28;20061;-79
2023/04/02 08:48:19;;;;;;;3.65;0.68;;;4.70;72.80;;;;;;4974464;28;20157;-79
2023/04/02 08:50:46;;;;;;;4.68;0.80;;;4.70;72.70;;;;;;4986631;28;20100;-78
2023/04/02 08:53:18;;;;;;;5.03;0.70;;;4.80;72.80;;;;;;4984962;28;20153;-78
2023/04/02 08:55:54;;;;;;;3.50;0.60;;;4.90;72.70;;;;;;4986320;28;21063;-80
2023/04/02 08:58:32;;;;;;;4.80;0.68;;;4.90;72.60;;;;;;4987690;28;20050;-80
2023/04/02 09:01:02;;;;;;;3.35;0.40;;;4.90;72.90;;;;;;5000737;28;20543;-79
2023/04/02 09:03:35;;;;;;;4.68;0.65;;;5.00;73.20;;;;;;4987684;28;20086;-80
2023/04/02 09:06:03;;;;;;;5.70;1.00;;;5.00;73.20;;;;;;4963112;28;20194;-79
2023/04/02 09:08:34;;;;;;;5.28;0.82;;;5.10;73.20;;;;;;4987564;28;20141;-79
2023/04/02 09:11:06;;;;;;;4.45;0.70;;;5.10;73.20;;;;;;4985306;28;20051;-79
2023/04/02 09:13:36;;;;;;;4.93;0.60;;;5.30;73.00;;;;;;4985068;28;20057;-79
2023/04/02 09:16:08;;;;;;;1.80;0.40;;;5.30;72.50;;;;;;4987578;28;20149;-79
2023/04/02 09:18:36;;;;;;;4.63;0.63;;;5.30;72.20;;;;;;4987609;28;20078;-79
2023/04/02 09:21:27;;;;;;;4.68;0.88;;;5.50;72.00;;;;;;4986695;28;20062;-78
2023/04/02 09:23:56;;;;;;;3.58;0.73;;;5.50;71.90;;;;;;4983879;28;20055;-79
2023/04/02 09:26:26;;;;;;;3.67;0.50;;;5.50;71.80;;;;;;4987943;28;20277;-80
2023/04/02 09:29:00;;;;;;;6.03;0.80;;;5.50;71.90;;;;;;4985330;28;20667;-80
2023/04/02 09:31:34;;;;;;;5.20;0.77;;;5.60;71.70;;;;;;4984616;28;20054;-77
2023/04/02 09:34:01;;;;;;;2.83;0.40;;;5.60;71.80;;;;;;4983247;28;20051;-77
2023/04/02 09:36:36;;;;;;;4.43;0.63;;;5.70;71.50;;;;;;4985955;28;20059;-76
2023/04/02 09:39:15;;;;;;;4.57;0.70;;;5.70;71.50;;;;;;4987097;28;20051;-79
2023/04/02 09:41:42;;;;;;;4.00;0.60;;;5.80;72.10;;;;;;4985358;28;20066;-80
2023/04/02 09:44:18;;;;;;;5.33;1.13;;;5.80;72.20;;;;;;4987937;28;20145;-79
2023/04/02 09:46:53;;;;;;;3.47;0.60;;;5.90;72.00;;;;;;4983575;28;20091;-79
2023/04/02 09:49:25;;;;;;;2.90;0.50;;;6.00;71.90;;;;;;4988504;28;20085;-78
2023/04/02 09:52:21;;;;;;;3.70;0.52;;;6.00;71.80;;;;;;4969022;28;20055;-77
2023/04/02 09:55:16;;;;;;;4.28;0.50;;;6.10;72.00;;;;;;4983987;28;20110;-79
2023/04/02 09:57:44;;;;;;;3.10;0.60;;;6.10;72.10;;;;;;4983688;28;20062;-77
2023/04/02 10:00:18;;;;;;;6.57;0.80;;;6.20;72.00;;;;;;4987587;28;20142;-77
2023/04/02 10:02:46;;;;;;;6.68;0.88;;;6.30;71.30;;;;;;4984642;28;20070;-77
2023/04/02 10:05:21;;;;;;;3.15;0.50;;;6.40;71.70;;;;;;4986359;28;20051;-77
2023/04/02 10:07:49;;;;;;;3.78;0.50;;;6.40;71.50;;;;;;4985230;28;20499;-77
2023/04/02 10:10:21;;;;;;;5.17;0.80;;;6.50;71.60;;;;;;4985135;28;20509;-76
2023/04/02 10:12:56;;;;;;;2.17;0.35;;;6.60;71.20;;;;;;4980555;28;20062;-77
2023/04/02 10:15:31;;;;;;;3.90;0.70;;;6.60;71.10;;;;;;4986166;28;20544;-78
2023/04/02 10:18:05;;;;;;;3.50;0.60;;;6.70;71.00;;;;;;4985610;28;20133;-77
2023/04/02 10:20:36;;;;;;;4.35;0.63;;;6.80;71.20;;;;;;4978173;28;20137;-77
2023/04/02 10:23:03;;;;;;;4.60;0.70;;;6.90;71.70;;;;;;4984716;28;20059;-77
2023/04/02 10:25:36;;;;;;;3.90;0.50;;;7.00;71.20;;;;;;4982854;28;20141;-77
2023/04/02 10:28:12;;;;;;;3.22;0.95;;;7.00;70.80;;;;;;4982977;28;20513;-77
2023/04/02 10:30:52;;;;;;;5.35;0.65;;;7.10;70.80;;;;;;4983331;28;20117;-77
2023/04/02 10:33:24;;;;;;;4.85;0.47;;;7.20;70.40;;;;;;4983482;28;20129;-77
2023/04/02 10:36:02;;;;;;;3.63;0.60;;;7.30;70.00;;;;;;4985155;28;20052;-77
2023/04/02 10:38:41;;;;;;;3.63;0.80;;;7.40;69.50;;;;;;4984610;28;20059;-77
2023/04/02 10:41:31;;;;;;;3.20;0.50;;;7.40;69.90;;;;;;4986102;28;20082;-77
2023/04/02 10:44:16;;;;;;;3.92;0.50;;;7.50;69.30;;;;;;4980653;28;20061;-79
2023/04/02 10:46:53;;;;;;;4.28;0.50;;;7.50;69.20;;;;;;4997361;28;20623;-77
2023/04/02 10:49:30;;;;;;;5.37;0.50;;;7.60;69.60;;;;;;4985331;28;20051;-77
2023/04/02 10:52:02;;;;;;;3.08;0.43;;;7.70;69.30;;;;;;4995855;28;20058;-78
2023/04/02 10:54:37;;;;;;;3.20;0.50;;;7.80;69.50;;;;;;4984005;28;20606;-78
2023/04/02 10:57:12;;;;;;;3.60;0.60;;;7.80;69.20;;;;;;4990244;28;20627;-78
2023/04/02 10:59:43;;;;;;;3.42;0.40;;;7.90;68.60;;;;;;5016986;28;20067;-78
2023/04/02 11:02:30;;;;;;;3.53;0.33;;;8.00;68.50;;;;;;5017942;28;20093;-78
2023/04/02 11:05:01;;;;;;;3.30;0.77;;;8.00;68.10;;;;;;5020672;28;20053;-77
2023/04/02 11:07:32;;;;;;;3.40;0.50;;;8.10;68.40;;;;;;4998099;28;20051;-79
2023/04/02 11:10:00;;;;;;;3.65;0.60;;;8.10;68.10;;;;;;4989379;28;20123;-79
2023/04/02 11:12:46;;;;;;;3.28;0.75;;;8.20;68.20;;;;;;4989686;28;20584;-78
2023/04/02 11:15:16;;;;;;;3.00;0.30;;;8.30;68.10;;;;;;4985397;28;20508;-77
2023/04/02 11:17:43;;;;;;;3.22;0.40;;;8.30;68.10;;;;;;4986321;28;20054;-78
2023/04/02 11:20:43;;;;;;;3.72;0.50;;;8.40;68.00;;;;;;4983657;28;20055;-77
2023/04/02 11:23:12;;;;;;;4.13;0.55;;;8.50;67.90;;;;;;5014920;28;20146;-77
2023/04/02 11:25:41;;;;;;;2.72;0.50;;;8.50;68.00;;;;;;4983874;28;20043;-77
2023/04/02 11:28:26;;;;;;;4.50;0.50;;;8.60;67.80;;;;;;4973246;28;20057;-77
2023/04/02 11:30:54;;;;;;;3.47;0.65;;;8.70;68.30;;;;;;4978985;28;20063;-77
2023/04/02 11:33:44;;;;;;;3.15;0.60;;;8.80;67.70;;;;;;4997699;28;20058;-77
2023/04/02 11:36:40;;;;;;;2.47;0.38;;;8.90;68.00;;;;;;4984468;28;20704;-77
2023/04/02 11:39:10;;;;;;;3.25;0.40;;;9.00;67.40;;;;;;4950650;28;20046;-77
2023/04/02 11:42:03;;;;;;;5.40;0.70;;;9.10;66.90;;;;;;4979896;28;20066;-77
2023/04/02 11:44:32;;;;;;;4.03;0.50;;;9.20;66.20;;;;;;4967565;28;20508;-82
2023/04/02 11:47:19;;;;;;;3.88;0.50;;;9.20;66.20;;;;;;5017642;28;20363;-79
2023/04/02 11:50:25;;;;;;;3.47;0.40;;;9.30;66.20;;;;;;4984010;28;20055;-79
2023/04/02 11:52:53;;;;;;;5.15;0.80;;;9.40;66.50;;;;;;5017648;28;20532;-79
2023/04/02 11:55:29;;;;;;;4.87;0.60;;;9.40;67.10;;;;;;4998328;28;20050;-78
2023/04/02 11:58:21;;;;;;;4.32;0.60;;;9.50;66.50;;;;;;5011508;28;20059;-79
2023/04/02 12:01:33;;;;;;;4.90;0.60;;;9.60;66.60;;;;;;5000653;28;20043;-78
2023/04/02 12:04:34;;;;;;;4.03;0.60;;;9.70;66.30;;;;;;5007414;28;20065;-78
2023/04/02 12:07:21;;;;;;;4.28;0.50;;;9.90;65.60;;;;;;4982602;28;20573;-78
2023/04/02 12:09:51;;;;;;;3.87;0.40;;;10.00;65.70;;;;;;4999762;28;20054;-78
2023/04/02 12:12:26;;;;;;;3.80;0.47;;;10.00;64.70;;;;;;4987054;28;20094;-78
2023/04/02 12:14:55;;;;;;;2.63;0.45;;;10.10;64.60;;;;;;4988024;28;20433;-79
2023/04/02 12:17:29;;;;;;;3.63;0.73;;;10.10;64.80;;;;;;5024079;28;20746;-78
2023/04/02 12:19:59;;;;;;;4.93;0.50;;;10.10;64.00;;;;;;5017761;28;20493;-79
2023/04/02 12:22:29;;;;;;;4.63;0.60;;;10.20;62.70;;;;;;4987569;28;20050;-79
2023/04/02 12:25:00;;;;;;;4.40;0.40;;;10.20;63.90;;;;;;4983514;28;20501;-78
2023/04/02 12:27:29;;;;;;;3.00;0.40;;;10.30;63.80;;;;;;5019901;28;20066;-79
2023/04/02 12:30:10;;;;;;;4.63;0.50;;;10.30;63.60;;;;;;4984772;28;20051;-77
2023/04/02 12:32:39;;;;;;;3.88;0.50;;;10.40;63.40;;;;;;4987381;28;20161;-77
2023/04/02 12:35:07;;;;;;;3.40;0.63;;;10.40;63.00;;;;;;4989107;28;20337;-78
2023/04/02 12:37:34;;;;;;;3.65;0.60;;;10.50;62.80;;;;;;5003556;28;20134;-77
2023/04/02 12:40:06;;;;;;;2.30;0.50;;;10.50;63.30;;;;;;4986915;28;20047;-79
2023/04/02 12:42:34;;;;;;;3.45;0.50;;;10.60;63.20;;;;;;4986283;28;20054;-77
2023/04/02 12:45:03;;;;;;;4.22;0.77;;;10.60;63.50;;;;;;4987996;28;20157;-78
2023/04/02 12:47:30;;;;;;;3.33;0.50;;;10.70;64.10;;;;;;4989001;28;20133;-78
2023/04/02 12:50:00;;;;;;;5.32;0.63;;;10.80;64.40;;;;;;4989526;28;20057;-79
2023/04/02 12:52:29;;;;;;;4.30;0.50;;;11.00;63.20;;;;;;5020745;28;20051;-79
2023/04/02 12:54:58;;;;;;;3.10;0.70;;;11.10;62.30;;;;;;4985568;28;20138;-79
2023/04/02 12:57:39;;;;;;;3.47;0.50;;;11.10;62.20;;;;;;5021055;28;20074;-79
2023/04/02 13:00:29;;;;;;;3.10;0.40;;;11.20;62.20;;;;;;5017802;28;20166;-79
2023/04/02 13:03:00;;;;;;;4.25;0.82;;;11.30;61.60;;;;;;4987252;28;20046;-79
2023/04/02 13:05:40;;;;;;;3.53;0.57;;;11.30;61.40;;;;;;4990735;28;20437;-80
2023/04/02 13:08:15;;;;;;;3.63;0.50;;;11.30;61.00;;;;;;5002767;28;20318;-80
2023/04/02 13:10:43;;;;;;;3.92;0.60;;;11.40;60.50;;;;;;4985827;28;20055;-80
2023/04/02 13:13:16;;;;;;;3.03;0.40;;;11.40;60.30;;;;;;5003335;28;20517;-80
2023/04/02 13:15:45;;;;;;;3.58;0.50;;;11.40;60.60;;;;;;4988665;28;20588;-80
2023/04/02 13:18:21;;;;;;;2.78;0.50;;;11.50;60.30;;;;;;5002515;28;20054;-80
2023/04/02 13:20:57;;;;;;;2.85;0.57;;;11.50;60.10;;;;;;4985935;28;20110;-80
2023/04/02 13:23:31;;;;;;;3.63;0.40;;;11.50;59.80;;;;;;5019071;28;20085;-80
2023/04/02 13:26:00;;;;;;;4.50;0.60;;;11.50;60.80;;;;;;4988749;28;20511;-79
2023/04/02 13:28:28;;;;;;;3.40;0.60;;;11.60;61.00;;;;;;4987648;28;20581;-80